sensor_id;sensor_type;location;lat;lon;timestamp;P1;durP1;ratioP1;P2;durP2;ratioP2
14074;SDS011;12831;52.392;13.066;2023-03-20T00:01:13;6.25;;;3.47;;
14074;SDS011;12831;52.392;13.066;2023-03-20T00:03:39;3.78;;;2.47;;
14074;SDS011;12831;52.392;13.066;2023-03-20T00:06:09;5.03;;;2.85;;
14074;SDS011;12831;52.392;13.066;2023-03-20T00:08:36;6.45;;;3.40;;
14074;SDS011;12831;52.392;13.066;2023-03-20T00:11:03;5.60;;;3.00;;
14074;SDS011;12831;52.392;13.066;2023-03-20T00:13:29;6.38;;;3.13;;
14074;SDS011;12831;52.392;13.066;2023-03-20T00:15:55;7.95;;;3.53;;
14074;SDS011;12831;52.392;13.066;2023-03-20T00:18:21;5.15;;;3.63;;
14074;SDS011;12831;52.392;13.066;2023-03-20T00:20:48;5.90;;;3.63;;
14074;SDS011;12831;52.392;13.066;2023-03-20T00:23:14;6.13;;;3.22;;
14074;SDS011;12831;52.392;13.066;2023-03-20T00:25:42;5.05;;;3.45;;
14074;SDS011;12831;52.392;13.066;2023-03-20T00:30:50;6.38;;;3.13;;
14074;SDS011;12831;52.392;13.066;2023-03-20T00:33:16;4.30;;;2.95;;
14074;SDS011;12831;52.392;13.066;2023-03-20T00:35:42;7.32;;;3.33;;
14074;SDS011;12831;52.392;13.066;2023-03-20T00:38:08;4.55;;;3.00;;
14074;SDS011;12831;52.392;13.066;2023-03-20T00:40:33;8.35;;;3.58;;
14074;SDS011;12831;52.392;13.066;2023-03-20T00:43:00;5.80;;;3.30;;
14074;SDS011;12831;52.392;13.066;2023-03-20T00:45:27;5.30;;;3.55;;
14074;SDS011;12831;52.392;13.066;2023-03-20T00:47:53;6.90;;;3.42;;
14074;SDS011;12831;52.392;13.066;2023-03-20T00:50:21;5.85;;;3.50;;
14074;SDS011;12831;52.392;13.066;2023-03-20T00:52:48;6.40;;;3.47;;
14074;SDS011;12831;52.392;13.066;2023-03-20T00:55:15;6.03;;;3.33;;
14074;SDS011;12831;52.392;13.066;2023-03-20T00:57:48;7.47;;;4.20;;
14074;SDS011;12831;52.392;13.066;2023-03-20T01:02:43;7.07;;;3.72;;
14074;SDS011;12831;52.392;13.066;2023-03-20T01:05:08;7.45;;;3.00;;
14074;SDS011;12831;52.392;13.066;2023-03-20T01:07:34;5.70;;;3.38;;
14074;SDS011;12831;52.392;13.066;2023-03-20T01:10:01;4.80;;;3.17;;
14074;SDS011;12831;52.392;13.066;2023-03-20T01:12:26;6.13;;;3.30;;
14074;SDS011;12831;52.392;13.066;2023-03-20T01:14:53;5.40;;;3.95;;
14074;SDS011;12831;52.392;13.066;2023-03-20T01:17:20;6.00;;;3.25;;
14074;SDS011;12831;52.392;13.066;2023-03-20T01:19:47;4.10;;;2.95;;
14074;SDS011;12831;52.392;13.066;2023-03-20T01:22:13;5.88;;;3.28;;
14074;SDS011;12831;52.392;13.066;2023-03-20T01:24:38;4.07;;;3.17;;
14074;SDS011;12831;52.392;13.066;2023-03-20T01:27:16;4.95;;;3.13;;
14074;SDS011;12831;52.392;13.066;2023-03-20T01:29:42;4.57;;;3.05;;
14074;SDS011;12831;52.392;13.066;2023-03-20T01:32:09;7.43;;;3.28;;
14074;SDS011;12831;52.392;13.066;2023-03-20T01:34:37;6.93;;;3.75;;
14074;SDS011;12831;52.392;13.066;2023-03-20T01:37:02;6.38;;;3.53;;
14074;SDS011;12831;52.392;13.066;2023-03-20T01:39:33;7.82;;;3.78;;
14074;SDS011;12831;52.392;13.066;2023-03-20T01:41:59;5.45;;;3.85;;
14074;SDS011;12831;52.392;13.066;2023-03-20T01:44:27;4.72;;;3.25;;
14074;SDS011;12831;52.392;13.066;2023-03-20T01:46:53;6.38;;;3.67;;
14074;SDS011;12831;52.392;13.066;2023-03-20T01:51:46;4.75;;;3.40;;
14074;SDS011;12831;52.392;13.066;2023-03-20T01:56:48;4.60;;;3.92;;
14074;SDS011;12831;52.392;13.066;2023-03-20T01:59:16;6.10;;;3.70;;
14074;SDS011;12831;52.392;13.066;2023-03-20T02:01:42;6.07;;;3.72;;
14074;SDS011;12831;52.392;13.066;2023-03-20T02:04:09;5.28;;;3.22;;
14074;SDS011;12831;52.392;13.066;2023-03-20T02:06:35;5.82;;;3.63;;
14074;SDS011;12831;52.392;13.066;2023-03-20T02:09:02;5.45;;;3.25;;
14074;SDS011;12831;52.392;13.066;2023-03-20T02:11:28;5.32;;;3.80;;
14074;SDS011;12831;52.392;13.066;2023-03-20T02:13:56;5.93;;;3.17;;
14074;SDS011;12831;52.392;13.066;2023-03-20T02:16:22;7.95;;;4.03;;
14074;SDS011;12831;52.392;13.066;2023-03-20T02:18:49;6.90;;;4.38;;
14074;SDS011;12831;52.392;13.066;2023-03-20T02:21:31;6.38;;;4.05;;
14074;SDS011;12831;52.392;13.066;2023-03-20T02:39:12;5.50;;;3.58;;
14074;SDS011;12831;52.392;13.066;2023-03-20T02:41:42;7.00;;;4.40;;
14074;SDS011;12831;52.392;13.066;2023-03-20T02:46:40;5.28;;;3.65;;
14074;SDS011;12831;52.392;13.066;2023-03-20T02:49:29;8.18;;;4.82;;
14074;SDS011;12831;52.392;13.066;2023-03-20T02:52:06;6.50;;;4.07;;
14074;SDS011;12831;52.392;13.066;2023-03-20T02:54:53;8.30;;;4.18;;
14074;SDS011;12831;52.392;13.066;2023-03-20T02:57:26;6.97;;;4.00;;
14074;SDS011;12831;52.392;13.066;2023-03-20T03:00:06;6.03;;;4.18;;
14074;SDS011;12831;52.392;13.066;2023-03-20T03:02:38;6.57;;;4.10;;
14074;SDS011;12831;52.392;13.066;2023-03-20T03:05:14;5.70;;;4.20;;
14074;SDS011;12831;52.392;13.066;2023-03-20T03:07:42;6.78;;;3.83;;
14074;SDS011;12831;52.392;13.066;2023-03-20T03:10:11;7.05;;;5.03;;
14074;SDS011;12831;52.392;13.066;2023-03-20T03:12:40;4.10;;;3.33;;
14074;SDS011;12831;52.392;13.066;2023-03-20T03:17:51;6.05;;;4.32;;
14074;SDS011;12831;52.392;13.066;2023-03-20T03:20:21;6.00;;;4.60;;
14074;SDS011;12831;52.392;13.066;2023-03-20T03:22:48;7.05;;;4.40;;
14074;SDS011;12831;52.392;13.066;2023-03-20T03:25:15;9.07;;;4.55;;
14074;SDS011;12831;52.392;13.066;2023-03-20T03:27:41;6.18;;;4.05;;
14074;SDS011;12831;52.392;13.066;2023-03-20T03:30:12;5.00;;;3.70;;
14074;SDS011;12831;52.392;13.066;2023-03-20T03:32:49;5.95;;;3.65;;
14074;SDS011;12831;52.392;13.066;2023-03-20T03:35:16;5.35;;;3.88;;
14074;SDS011;12831;52.392;13.066;2023-03-20T03:40:34;5.45;;;4.22;;
14074;SDS011;12831;52.392;13.066;2023-03-20T03:43:03;7.90;;;5.43;;
14074;SDS011;12831;52.392;13.066;2023-03-20T03:45:33;5.80;;;4.53;;
14074;SDS011;12831;52.392;13.066;2023-03-20T03:48:13;7.45;;;4.10;;
14074;SDS011;12831;52.392;13.066;2023-03-20T03:50:41;6.25;;;3.78;;
14074;SDS011;12831;52.392;13.066;2023-03-20T03:53:13;5.32;;;3.95;;
14074;SDS011;12831;52.392;13.066;2023-03-20T03:55:42;7.13;;;4.40;;
14074;SDS011;12831;52.392;13.066;2023-03-20T03:58:10;6.68;;;5.05;;
14074;SDS011;12831;52.392;13.066;2023-03-20T04:00:38;7.75;;;5.10;;
14074;SDS011;12831;52.392;13.066;2023-03-20T04:03:05;6.95;;;4.85;;
14074;SDS011;12831;52.392;13.066;2023-03-20T04:05:31;6.25;;;4.82;;
14074;SDS011;12831;52.392;13.066;2023-03-20T04:08:00;6.38;;;4.30;;
14074;SDS011;12831;52.392;13.066;2023-03-20T04:10:26;5.82;;;3.90;;
14074;SDS011;12831;52.392;13.066;2023-03-20T04:12:51;6.97;;;4.53;;
14074;SDS011;12831;52.392;13.066;2023-03-20T04:15:17;7.65;;;5.03;;
14074;SDS011;12831;52.392;13.066;2023-03-20T04:17:44;6.80;;;5.03;;
14074;SDS011;12831;52.392;13.066;2023-03-20T04:20:10;8.30;;;4.93;;
14074;SDS011;12831;52.392;13.066;2023-03-20T04:22:37;6.55;;;5.13;;
14074;SDS011;12831;52.392;13.066;2023-03-20T04:25:03;6.82;;;5.03;;
14074;SDS011;12831;52.392;13.066;2023-03-20T04:27:29;8.90;;;5.20;;
14074;SDS011;12831;52.392;13.066;2023-03-20T04:29:55;12.70;;;4.60;;
14074;SDS011;12831;52.392;13.066;2023-03-20T04:32:21;7.93;;;4.93;;
14074;SDS011;12831;52.392;13.066;2023-03-20T04:34:47;8.07;;;4.43;;
14074;SDS011;12831;52.392;13.066;2023-03-20T04:37:12;7.47;;;5.13;;
14074;SDS011;12831;52.392;13.066;2023-03-20T04:39:38;7.20;;;5.30;;
14074;SDS011;12831;52.392;13.066;2023-03-20T04:42:06;9.50;;;5.80;;
14074;SDS011;12831;52.392;13.066;2023-03-20T04:44:33;12.55;;;5.50;;
14074;SDS011;12831;52.392;13.066;2023-03-20T04:46:59;7.75;;;5.65;;
14074;SDS011;12831;52.392;13.066;2023-03-20T04:49:24;7.55;;;5.50;;
14074;SDS011;12831;52.392;13.066;2023-03-20T04:51:51;7.05;;;5.10;;
14074;SDS011;12831;52.392;13.066;2023-03-20T04:54:17;7.88;;;5.95;;
14074;SDS011;12831;52.392;13.066;2023-03-20T04:56:43;6.55;;;4.80;;
14074;SDS011;12831;52.392;13.066;2023-03-20T04:59:09;9.00;;;6.60;;
14074;SDS011;12831;52.392;13.066;2023-03-20T05:01:34;10.95;;;5.68;;
14074;SDS011;12831;52.392;13.066;2023-03-20T05:04:00;6.78;;;5.15;;
14074;SDS011;12831;52.392;13.066;2023-03-20T05:06:27;8.18;;;5.20;;
14074;SDS011;12831;52.392;13.066;2023-03-20T05:08:53;9.18;;;6.38;;
14074;SDS011;12831;52.392;13.066;2023-03-20T05:11:19;11.25;;;7.40;;
14074;SDS011;12831;52.392;13.066;2023-03-20T05:13:44;10.32;;;6.53;;
14074;SDS011;12831;52.392;13.066;2023-03-20T05:16:10;9.82;;;6.97;;
14074;SDS011;12831;52.392;13.066;2023-03-20T05:18:36;11.20;;;7.20;;
14074;SDS011;12831;52.392;13.066;2023-03-20T05:21:02;8.25;;;6.00;;
14074;SDS011;12831;52.392;13.066;2023-03-20T05:23:29;9.18;;;6.82;;
14074;SDS011;12831;52.392;13.066;2023-03-20T05:25:55;10.77;;;7.40;;
14074;SDS011;12831;52.392;13.066;2023-03-20T05:28:21;9.88;;;7.05;;
14074;SDS011;12831;52.392;13.066;2023-03-20T05:30:47;11.32;;;7.97;;
14074;SDS011;12831;52.392;13.066;2023-03-20T05:33:16;11.90;;;7.72;;
14074;SDS011;12831;52.392;13.066;2023-03-20T05:35:42;13.65;;;8.57;;
14074;SDS011;12831;52.392;13.066;2023-03-20T05:38:07;12.90;;;8.30;;
14074;SDS011;12831;52.392;13.066;2023-03-20T05:40:33;15.20;;;8.65;;
14074;SDS011;12831;52.392;13.066;2023-03-20T05:42:59;12.15;;;7.85;;
14074;SDS011;12831;52.392;13.066;2023-03-20T05:45:25;13.55;;;7.90;;
14074;SDS011;12831;52.392;13.066;2023-03-20T05:47:51;12.30;;;8.27;;
14074;SDS011;12831;52.392;13.066;2023-03-20T05:50:17;14.00;;;9.20;;
14074;SDS011;12831;52.392;13.066;2023-03-20T05:52:45;14.68;;;9.43;;
14074;SDS011;12831;52.392;13.066;2023-03-20T05:55:11;11.73;;;8.35;;
14074;SDS011;12831;52.392;13.066;2023-03-20T05:57:37;15.52;;;10.75;;
14074;SDS011;12831;52.392;13.066;2023-03-20T06:00:03;14.60;;;9.45;;
14074;SDS011;12831;52.392;13.066;2023-03-20T06:02:33;14.38;;;10.02;;
14074;SDS011;12831;52.392;13.066;2023-03-20T06:04:59;16.65;;;11.25;;
14074;SDS011;12831;52.392;13.066;2023-03-20T06:07:25;16.98;;;11.20;;
14074;SDS011;12831;52.392;13.066;2023-03-20T06:09:51;17.63;;;11.95;;
14074;SDS011;12831;52.392;13.066;2023-03-20T06:12:17;18.85;;;13.35;;
14074;SDS011;12831;52.392;13.066;2023-03-20T06:14:43;20.05;;;13.13;;
14074;SDS011;12831;52.392;13.066;2023-03-20T06:17:08;17.67;;;12.05;;
14074;SDS011;12831;52.392;13.066;2023-03-20T06:19:34;15.23;;;12.65;;
14074;SDS011;12831;52.392;13.066;2023-03-20T06:22:01;20.15;;;14.40;;
14074;SDS011;12831;52.392;13.066;2023-03-20T06:24:27;20.00;;;14.38;;
14074;SDS011;12831;52.392;13.066;2023-03-20T06:26:53;22.65;;;16.52;;
14074;SDS011;12831;52.392;13.066;2023-03-20T06:29:18;24.83;;;17.13;;
14074;SDS011;12831;52.392;13.066;2023-03-20T06:31:45;27.17;;;17.88;;
14074;SDS011;12831;52.392;13.066;2023-03-20T06:34:11;29.33;;;19.35;;
14074;SDS011;12831;52.392;13.066;2023-03-20T06:36:37;36.78;;;22.50;;
14074;SDS011;12831;52.392;13.066;2023-03-20T06:39:03;28.38;;;19.65;;
14074;SDS011;12831;52.392;13.066;2023-03-20T06:41:29;28.33;;;19.02;;
14074;SDS011;12831;52.392;13.066;2023-03-20T06:44:00;29.30;;;19.27;;
14074;SDS011;12831;52.392;13.066;2023-03-20T06:46:26;27.85;;;19.55;;
14074;SDS011;12831;52.392;13.066;2023-03-20T06:48:52;27.42;;;17.75;;
14074;SDS011;12831;52.392;13.066;2023-03-20T06:51:18;26.38;;;18.05;;
14074;SDS011;12831;52.392;13.066;2023-03-20T06:53:44;30.88;;;19.40;;
14074;SDS011;12831;52.392;13.066;2023-03-20T06:56:10;33.38;;;20.35;;
14074;SDS011;12831;52.392;13.066;2023-03-20T06:58:37;32.92;;;20.33;;
14074;SDS011;12831;52.392;13.066;2023-03-20T07:01:09;35.78;;;19.30;;
14074;SDS011;12831;52.392;13.066;2023-03-20T07:03:36;33.30;;;20.33;;
14074;SDS011;12831;52.392;13.066;2023-03-20T07:06:01;35.72;;;20.67;;
14074;SDS011;12831;52.392;13.066;2023-03-20T07:08:27;33.47;;;20.05;;
14074;SDS011;12831;52.392;13.066;2023-03-20T07:10:53;35.22;;;22.02;;
14074;SDS011;12831;52.392;13.066;2023-03-20T07:13:19;33.70;;;19.98;;
14074;SDS011;12831;52.392;13.066;2023-03-20T07:15:45;32.15;;;20.27;;
14074;SDS011;12831;52.392;13.066;2023-03-20T07:18:29;33.28;;;20.60;;
14074;SDS011;12831;52.392;13.066;2023-03-20T07:20:59;31.52;;;18.77;;
14074;SDS011;12831;52.392;13.066;2023-03-20T07:23:27;29.42;;;18.45;;
14074;SDS011;12831;52.392;13.066;2023-03-20T07:25:53;29.33;;;18.63;;
14074;SDS011;12831;52.392;13.066;2023-03-20T07:28:20;31.23;;;18.90;;
14074;SDS011;12831;52.392;13.066;2023-03-20T07:30:46;30.52;;;19.02;;
14074;SDS011;12831;52.392;13.066;2023-03-20T07:33:12;31.58;;;19.58;;
14074;SDS011;12831;52.392;13.066;2023-03-20T07:35:38;29.05;;;18.05;;
14074;SDS011;12831;52.392;13.066;2023-03-20T07:38:06;30.48;;;17.92;;
14074;SDS011;12831;52.392;13.066;2023-03-20T07:40:32;28.30;;;17.58;;
14074;SDS011;12831;52.392;13.066;2023-03-20T07:42:59;32.30;;;18.40;;
14074;SDS011;12831;52.392;13.066;2023-03-20T07:45:25;29.27;;;17.85;;
14074;SDS011;12831;52.392;13.066;2023-03-20T07:47:52;31.42;;;17.73;;
14074;SDS011;12831;52.392;13.066;2023-03-20T07:50:18;28.10;;;17.60;;
14074;SDS011;12831;52.392;13.066;2023-03-20T07:52:48;28.60;;;16.85;;
14074;SDS011;12831;52.392;13.066;2023-03-20T07:55:14;25.88;;;17.38;;
14074;SDS011;12831;52.392;13.066;2023-03-20T07:57:43;25.25;;;16.13;;
14074;SDS011;12831;52.392;13.066;2023-03-20T08:00:09;28.63;;;17.90;;
14074;SDS011;12831;52.392;13.066;2023-03-20T08:02:45;28.70;;;16.33;;
14074;SDS011;12831;52.392;13.066;2023-03-20T08:05:11;26.15;;;16.05;;
14074;SDS011;12831;52.392;13.066;2023-03-20T08:07:37;28.45;;;16.63;;
14074;SDS011;12831;52.392;13.066;2023-03-20T08:10:03;28.20;;;16.40;;
14074;SDS011;12831;52.392;13.066;2023-03-20T08:12:29;23.52;;;14.77;;
14074;SDS011;12831;52.392;13.066;2023-03-20T08:14:55;29.80;;;15.15;;
14074;SDS011;12831;52.392;13.066;2023-03-20T08:17:21;30.27;;;15.65;;
14074;SDS011;12831;52.392;13.066;2023-03-20T08:19:49;27.55;;;17.08;;
14074;SDS011;12831;52.392;13.066;2023-03-20T08:22:15;26.08;;;15.60;;
14074;SDS011;12831;52.392;13.066;2023-03-20T08:24:41;26.33;;;16.55;;
14074;SDS011;12831;52.392;13.066;2023-03-20T08:27:07;29.25;;;15.10;;
14074;SDS011;12831;52.392;13.066;2023-03-20T08:29:33;26.88;;;15.25;;
14074;SDS011;12831;52.392;13.066;2023-03-20T08:32:02;26.98;;;15.20;;
14074;SDS011;12831;52.392;13.066;2023-03-20T08:34:28;24.23;;;13.05;;
14074;SDS011;12831;52.392;13.066;2023-03-20T08:36:55;27.45;;;14.65;;
14074;SDS011;12831;52.392;13.066;2023-03-20T08:39:21;22.27;;;14.73;;
14074;SDS011;12831;52.392;13.066;2023-03-20T08:41:48;24.17;;;14.63;;
14074;SDS011;12831;52.392;13.066;2023-03-20T08:44:14;28.92;;;14.95;;
14074;SDS011;12831;52.392;13.066;2023-03-20T08:46:41;24.17;;;14.57;;
14074;SDS011;12831;52.392;13.066;2023-03-20T08:49:09;23.85;;;14.15;;
14074;SDS011;12831;52.392;13.066;2023-03-20T08:51:35;24.77;;;14.40;;
14074;SDS011;12831;52.392;13.066;2023-03-20T08:54:01;25.67;;;13.23;;
14074;SDS011;12831;52.392;13.066;2023-03-20T08:56:27;24.15;;;14.15;;
14074;SDS011;12831;52.392;13.066;2023-03-20T08:58:52;17.58;;;10.95;;
14074;SDS011;12831;52.392;13.066;2023-03-20T09:01:21;22.80;;;12.30;;
14074;SDS011;12831;52.392;13.066;2023-03-20T09:03:47;17.10;;;11.50;;
14074;SDS011;12831;52.392;13.066;2023-03-20T09:06:12;21.60;;;11.73;;
14074;SDS011;12831;52.392;13.066;2023-03-20T09:08:38;21.88;;;13.82;;
14074;SDS011;12831;52.392;13.066;2023-03-20T09:11:04;19.00;;;12.18;;
14074;SDS011;12831;52.392;13.066;2023-03-20T09:13:31;19.80;;;11.93;;
14074;SDS011;12831;52.392;13.066;2023-03-20T09:15:57;17.33;;;11.82;;
14074;SDS011;12831;52.392;13.066;2023-03-20T09:18:23;19.88;;;12.98;;
14074;SDS011;12831;52.392;13.066;2023-03-20T09:20:50;24.85;;;13.35;;
14074;SDS011;12831;52.392;13.066;2023-03-20T09:23:16;20.77;;;11.82;;
14074;SDS011;12831;52.392;13.066;2023-03-20T09:25:42;24.38;;;11.45;;
14074;SDS011;12831;52.392;13.066;2023-03-20T09:28:08;20.65;;;11.95;;
14074;SDS011;12831;52.392;13.066;2023-03-20T09:30:34;18.83;;;11.18;;
14074;SDS011;12831;52.392;13.066;2023-03-20T09:33:00;19.10;;;9.95;;
14074;SDS011;12831;52.392;13.066;2023-03-20T09:35:26;17.38;;;9.90;;
14074;SDS011;12831;52.392;13.066;2023-03-20T09:37:52;18.90;;;9.20;;
14074;SDS011;12831;52.392;13.066;2023-03-20T09:40:29;15.93;;;9.40;;
14074;SDS011;12831;52.392;13.066;2023-03-20T09:43:00;22.80;;;8.80;;
14074;SDS011;12831;52.392;13.066;2023-03-20T09:51:22;10.05;;;6.78;;
14074;SDS011;12831;52.392;13.066;2023-03-20T09:53:35;14.77;;;8.15;;
14074;SDS011;12831;52.392;13.066;2023-03-20T09:56:03;10.23;;;6.30;;
14074;SDS011;12831;52.392;13.066;2023-03-20T09:58:33;14.77;;;7.22;;
14074;SDS011;12831;52.392;13.066;2023-03-20T10:01:02;12.40;;;7.32;;
14074;SDS011;12831;52.392;13.066;2023-03-20T10:04:04;12.98;;;7.82;;
14074;SDS011;12831;52.392;13.066;2023-03-20T10:06:22;13.05;;;7.20;;
14074;SDS011;12831;52.392;13.066;2023-03-20T10:08:48;14.02;;;6.95;;
14074;SDS011;12831;52.392;13.066;2023-03-20T10:16:12;12.65;;;8.77;;
14074;SDS011;12831;52.392;13.066;2023-03-20T10:18:44;11.93;;;7.32;;
14074;SDS011;12831;52.392;13.066;2023-03-20T10:21:15;12.05;;;7.63;;
14074;SDS011;12831;52.392;13.066;2023-03-20T10:26:13;14.50;;;7.57;;
14074;SDS011;12831;52.392;13.066;2023-03-20T10:28:42;14.98;;;7.55;;
14074;SDS011;12831;52.392;13.066;2023-03-20T10:41:36;12.55;;;6.53;;
14074;SDS011;12831;52.392;13.066;2023-03-20T10:44:03;12.27;;;7.03;;
14074;SDS011;12831;52.392;13.066;2023-03-20T10:46:33;10.65;;;6.15;;
14074;SDS011;12831;52.392;13.066;2023-03-20T10:51:32;10.20;;;6.55;;
14074;SDS011;12831;52.392;13.066;2023-03-20T10:54:04;13.27;;;7.38;;
14074;SDS011;12831;52.392;13.066;2023-03-20T10:56:34;10.98;;;6.43;;
14074;SDS011;12831;52.392;13.066;2023-03-20T10:59:06;12.65;;;7.60;;
14074;SDS011;12831;52.392;13.066;2023-03-20T11:01:34;12.45;;;7.53;;
14074;SDS011;12831;52.392;13.066;2023-03-20T11:04:07;13.23;;;7.28;;
14074;SDS011;12831;52.392;13.066;2023-03-20T11:06:36;10.50;;;5.90;;
14074;SDS011;12831;52.392;13.066;2023-03-20T11:09:11;11.48;;;6.30;;
14074;SDS011;12831;52.392;13.066;2023-03-20T11:11:44;13.57;;;7.63;;
14074;SDS011;12831;52.392;13.066;2023-03-20T11:14:17;12.60;;;6.85;;
14074;SDS011;12831;52.392;13.066;2023-03-20T11:16:46;12.80;;;7.13;;
14074;SDS011;12831;52.392;13.066;2023-03-20T11:19:12;12.15;;;7.43;;
14074;SDS011;12831;52.392;13.066;2023-03-20T11:21:46;11.00;;;6.15;;
14074;SDS011;12831;52.392;13.066;2023-03-20T11:24:49;11.80;;;6.40;;
14074;SDS011;12831;52.392;13.066;2023-03-20T11:27:09;11.07;;;6.18;;
14074;SDS011;12831;52.392;13.066;2023-03-20T11:29:35;11.57;;;7.45;;
14074;SDS011;12831;52.392;13.066;2023-03-20T11:34:46;12.65;;;7.28;;
14074;SDS011;12831;52.392;13.066;2023-03-20T11:42:32;11.23;;;6.80;;
14074;SDS011;12831;52.392;13.066;2023-03-20T11:45:14;10.57;;;6.13;;
14074;SDS011;12831;52.392;13.066;2023-03-20T11:47:40;12.45;;;7.22;;
14074;SDS011;12831;52.392;13.066;2023-03-20T11:52:52;13.50;;;7.70;;
14074;SDS011;12831;52.392;13.066;2023-03-20T11:55:22;13.68;;;7.88;;
14074;SDS011;12831;52.392;13.066;2023-03-20T12:00:17;12.30;;;6.63;;
14074;SDS011;12831;52.392;13.066;2023-03-20T12:02:47;12.05;;;7.53;;
14074;SDS011;12831;52.392;13.066;2023-03-20T12:07:42;15.32;;;7.60;;
14074;SDS011;12831;52.392;13.066;2023-03-20T12:10:10;12.05;;;7.03;;
14074;SDS011;12831;52.392;13.066;2023-03-20T12:12:51;14.95;;;7.68;;
14074;SDS011;12831;52.392;13.066;2023-03-20T12:15:30;11.40;;;7.45;;
14074;SDS011;12831;52.392;13.066;2023-03-20T12:20:57;15.25;;;8.13;;
14074;SDS011;12831;52.392;13.066;2023-03-20T12:26:03;13.38;;;8.18;;
14074;SDS011;12831;52.392;13.066;2023-03-20T12:28:37;12.73;;;7.53;;
14074;SDS011;12831;52.392;13.066;2023-03-20T12:36:17;13.30;;;7.88;;
14074;SDS011;12831;52.392;13.066;2023-03-20T12:38:43;12.68;;;7.85;;
14074;SDS011;12831;52.392;13.066;2023-03-20T12:41:19;13.70;;;8.30;;
14074;SDS011;12831;52.392;13.066;2023-03-20T12:49:10;15.20;;;9.77;;
14074;SDS011;12831;52.392;13.066;2023-03-20T12:56:54;16.88;;;9.75;;
14074;SDS011;12831;52.392;13.066;2023-03-20T13:05:56;18.20;;;8.98;;
14074;SDS011;12831;52.392;13.066;2023-03-20T13:07:51;12.70;;;8.30;;
14074;SDS011;12831;52.392;13.066;2023-03-20T13:10:23;17.95;;;10.68;;
14074;SDS011;12831;52.392;13.066;2023-03-20T13:15:52;15.07;;;9.90;;
14074;SDS011;12831;52.392;13.066;2023-03-20T13:18:36;17.70;;;9.32;;
14074;SDS011;12831;52.392;13.066;2023-03-20T13:21:08;16.40;;;9.50;;
14074;SDS011;12831;52.392;13.066;2023-03-20T13:23:48;17.67;;;10.88;;
14074;SDS011;12831;52.392;13.066;2023-03-20T13:28:48;17.00;;;10.48;;
14074;SDS011;12831;52.392;13.066;2023-03-20T13:39:59;22.23;;;10.30;;
14074;SDS011;12831;52.392;13.066;2023-03-20T13:42:29;21.45;;;10.95;;
14074;SDS011;12831;52.392;13.066;2023-03-20T13:45:03;15.30;;;9.65;;
14074;SDS011;12831;52.392;13.066;2023-03-20T13:47:31;18.40;;;11.07;;
14074;SDS011;12831;52.392;13.066;2023-03-20T13:50:11;19.67;;;10.20;;
14074;SDS011;12831;52.392;13.066;2023-03-20T13:52:41;16.85;;;11.73;;
14074;SDS011;12831;52.392;13.066;2023-03-20T13:55:17;20.33;;;11.13;;
14074;SDS011;12831;52.392;13.066;2023-03-20T14:00:48;17.17;;;11.13;;
14074;SDS011;12831;52.392;13.066;2023-03-20T14:08:52;19.02;;;10.95;;
14074;SDS011;12831;52.392;13.066;2023-03-20T14:13:58;17.90;;;11.45;;
14074;SDS011;12831;52.392;13.066;2023-03-20T14:19:07;18.10;;;10.77;;
14074;SDS011;12831;52.392;13.066;2023-03-20T14:21:34;21.63;;;10.77;;
14074;SDS011;12831;52.392;13.066;2023-03-20T14:24:05;18.50;;;10.30;;
14074;SDS011;12831;52.392;13.066;2023-03-20T14:26:35;18.35;;;10.23;;
14074;SDS011;12831;52.392;13.066;2023-03-20T14:31:35;20.40;;;11.05;;
14074;SDS011;12831;52.392;13.066;2023-03-20T14:42:04;19.52;;;11.32;;
14074;SDS011;12831;52.392;13.066;2023-03-20T14:44:46;17.58;;;10.65;;
14074;SDS011;12831;52.392;13.066;2023-03-20T14:49:48;15.50;;;10.20;;
14074;SDS011;12831;52.392;13.066;2023-03-20T14:52:21;25.65;;;12.40;;
14074;SDS011;12831;52.392;13.066;2023-03-20T14:54:52;21.15;;;13.18;;
14074;SDS011;12831;52.392;13.066;2023-03-20T14:57:28;19.45;;;11.80;;
14074;SDS011;12831;52.392;13.066;2023-03-20T14:59:54;16.38;;;10.30;;
14074;SDS011;12831;52.392;13.066;2023-03-20T15:02:27;22.65;;;11.18;;
14074;SDS011;12831;52.392;13.066;2023-03-20T15:04:54;16.48;;;11.45;;
14074;SDS011;12831;52.392;13.066;2023-03-20T15:07:25;18.65;;;11.90;;
14074;SDS011;12831;52.392;13.066;2023-03-20T15:09:53;19.63;;;11.57;;
14074;SDS011;12831;52.392;13.066;2023-03-20T15:12:25;17.65;;;11.55;;
14074;SDS011;12831;52.392;13.066;2023-03-20T15:14:53;18.70;;;11.02;;
14074;SDS011;12831;52.392;13.066;2023-03-20T15:17:24;20.33;;;11.70;;
14074;SDS011;12831;52.392;13.066;2023-03-20T15:22:46;18.77;;;12.75;;
14074;SDS011;12831;52.392;13.066;2023-03-20T15:25:15;18.60;;;11.63;;
14074;SDS011;12831;52.392;13.066;2023-03-20T15:27:41;21.40;;;12.52;;
14074;SDS011;12831;52.392;13.066;2023-03-20T15:30:08;21.55;;;12.20;;
14074;SDS011;12831;52.392;13.066;2023-03-20T15:32:39;18.58;;;11.77;;
14074;SDS011;12831;52.392;13.066;2023-03-20T15:35:05;16.58;;;11.20;;
14074;SDS011;12831;52.392;13.066;2023-03-20T15:37:31;17.08;;;11.23;;
14074;SDS011;12831;52.392;13.066;2023-03-20T15:39:59;19.08;;;11.32;;
14074;SDS011;12831;52.392;13.066;2023-03-20T15:42:34;22.52;;;11.25;;
14074;SDS011;12831;52.392;13.066;2023-03-20T15:45:00;17.50;;;11.90;;
14074;SDS011;12831;52.392;13.066;2023-03-20T15:47:26;20.63;;;12.20;;
14074;SDS011;12831;52.392;13.066;2023-03-20T15:49:53;18.25;;;12.85;;
14074;SDS011;12831;52.392;13.066;2023-03-20T15:54:56;18.70;;;12.57;;
14074;SDS011;12831;52.392;13.066;2023-03-20T15:57:24;18.20;;;11.77;;
14074;SDS011;12831;52.392;13.066;2023-03-20T15:59:51;16.20;;;10.25;;
14074;SDS011;12831;52.392;13.066;2023-03-20T16:02:23;17.00;;;10.80;;
14074;SDS011;12831;52.392;13.066;2023-03-20T16:04:50;17.40;;;11.93;;
14074;SDS011;12831;52.392;13.066;2023-03-20T16:07:35;16.50;;;10.43;;
14074;SDS011;12831;52.392;13.066;2023-03-20T16:10:01;18.27;;;11.80;;
14074;SDS011;12831;52.392;13.066;2023-03-20T16:12:27;17.38;;;11.45;;
14074;SDS011;12831;52.392;13.066;2023-03-20T16:14:53;17.10;;;12.20;;
14074;SDS011;12831;52.392;13.066;2023-03-20T16:17:20;18.45;;;11.52;;
14074;SDS011;12831;52.392;13.066;2023-03-20T16:19:46;23.00;;;10.95;;
14074;SDS011;12831;52.392;13.066;2023-03-20T16:22:26;18.23;;;11.00;;
14074;SDS011;12831;52.392;13.066;2023-03-20T16:24:53;18.92;;;12.23;;
14074;SDS011;12831;52.392;13.066;2023-03-20T16:27:25;17.27;;;11.27;;
14074;SDS011;12831;52.392;13.066;2023-03-20T16:29:52;20.67;;;12.15;;
14074;SDS011;12831;52.392;13.066;2023-03-20T16:32:39;22.08;;;11.98;;
14074;SDS011;12831;52.392;13.066;2023-03-20T16:35:50;20.25;;;11.40;;
14074;SDS011;12831;52.392;13.066;2023-03-20T16:37:52;19.38;;;12.52;;
14074;SDS011;12831;52.392;13.066;2023-03-20T16:40:29;18.48;;;10.15;;
14074;SDS011;12831;52.392;13.066;2023-03-20T16:43:05;18.80;;;11.32;;
14074;SDS011;12831;52.392;13.066;2023-03-20T16:45:32;16.45;;;10.90;;
14074;SDS011;12831;52.392;13.066;2023-03-20T16:50:34;21.73;;;11.32;;
14074;SDS011;12831;52.392;13.066;2023-03-20T16:53:01;22.08;;;11.68;;
14074;SDS011;12831;52.392;13.066;2023-03-20T16:55:28;20.55;;;12.52;;
14074;SDS011;12831;52.392;13.066;2023-03-20T16:57:59;18.05;;;11.00;;
14074;SDS011;12831;52.392;13.066;2023-03-20T17:00:29;19.70;;;11.13;;